Black River (Missouri), Poplar Bluff (07063000)

StateMissouriLatestLow (910 cfs)
RiverBlack RiverRatingObservedEstimated
Updated2021-01-24 7:15 (1 hour ago)Flood - The river is flooding. Obstacles can be treacherous or deadly. The river should be avoided at this stage for casual trips and definitely for the inexperienced. Trips should be attempted only with protective gear and equipment.Flood(none)4097
Discharge910 cfs (median: 1200 cfs)High - The river is high and potentially dangerous, especially for the young and / or inexperienced. Normal stream obstacles are sometimes difficult to navigate. Extended distances can be attempted, but canoe travel may not be advisable.High(none)1935
Height1.68 feetGood - Conditions are ideal for a canoe or kayak. Boats typically will drag on fewer than one-quarter of riffles, if at all, and portages are unnecessary or rare. Normal float lengths can be attempted without a problem.Good(none)978
TrendSteady (falling over 24 hours)Low - River is low but can still be floated. Some riffles are okay but most come with significant dragging and might need a portage. Float lengths should be reduced to accommodate low flow, dragging, and portages.Low(none)643
USGSExternal icon USGS Site (External icon Google Maps)Poor - River is too low to float comfortably. Most or all riffles will drag or must be portaged and some obstacles (such as slick shelf rock) cause undue problems. Avoid the river at this stage for casual paddling trips.Poor(none)338

Trending Data

Plot Image

Trips for Black River (Missouri), Poplar Bluff (07063000)

DateStartEndDistanceConditionDischargeHeightFishingDetails

A total of 0 rows are displayed.

Condition Descriptions

Fishing Conditions

Fish Species

Notes

Classic Trip List

The classic River Trips application is still available for use. It is updated with the new system using a data retrofit. It is no longer maintained. The original River Trips application is no longer updated (as of 1 Dec 2016) but can be checked for errors or for the condition of the data before it was converted to the new system.

Gauge Data Table

ObservationHeightDischargeMaximum
Discharge
Minimum
Discharge
Mean
Discharge
P05P10P20P25P50
(Median)
P75P80P90P95
2021-01-24 07:15 1.68 910 6490 (1949) 326 (1956) 1900 421 504 621 691 1200 2970 3290 4260 4370
2021-01-24 06:15 1.68 910 6490 (1949) 326 (1956) 1900 421 504 621 691 1200 2970 3290 4260 4370
2021-01-24 05:15 1.70 916 6490 (1949) 326 (1956) 1900 421 504 621 691 1200 2970 3290 4260 4370
2021-01-24 04:15 1.68 910 6490 (1949) 326 (1956) 1900 421 504 621 691 1200 2970 3290 4260 4370
2021-01-24 03:15 1.68 910 6490 (1949) 326 (1956) 1900 421 504 621 691 1200 2970 3290 4260 4370
2021-01-24 02:15 1.69 913 6490 (1949) 326 (1956) 1900 421 504 621 691 1200 2970 3290 4260 4370
2021-01-24 01:15 1.69 913 6490 (1949) 326 (1956) 1900 421 504 621 691 1200 2970 3290 4260 4370
2021-01-24 00:15 1.69 913 6490 (1949) 326 (1956) 1900 421 504 621 691 1200 2970 3290 4260 4370
2021-01-23 23:15 1.70 916 6190 (1982) 328 (1956) 1900 444 503 632 703 1310 3270 3430 4100 4690
2021-01-23 22:15 1.69 913 6190 (1982) 328 (1956) 1900 444 503 632 703 1310 3270 3430 4100 4690
2021-01-23 21:15 1.70 916 6190 (1982) 328 (1956) 1900 444 503 632 703 1310 3270 3430 4100 4690
2021-01-23 20:15 1.70 916 6190 (1982) 328 (1956) 1900 444 503 632 703 1310 3270 3430 4100 4690
2021-01-23 19:15 1.70 916 6190 (1982) 328 (1956) 1900 444 503 632 703 1310 3270 3430 4100 4690
2021-01-23 18:15 1.69 913 6190 (1982) 328 (1956) 1900 444 503 632 703 1310 3270 3430 4100 4690
2021-01-23 17:15 1.70 916 6190 (1982) 328 (1956) 1900 444 503 632 703 1310 3270 3430 4100 4690
2021-01-23 16:15 1.71 920 6190 (1982) 328 (1956) 1900 444 503 632 703 1310 3270 3430 4100 4690
2021-01-23 15:15 1.72 923 6190 (1982) 328 (1956) 1900 444 503 632 703 1310 3270 3430 4100 4690
2021-01-23 14:15 1.72 923 6190 (1982) 328 (1956) 1900 444 503 632 703 1310 3270 3430 4100 4690
2021-01-23 13:15 1.73 927 6190 (1982) 328 (1956) 1900 444 503 632 703 1310 3270 3430 4100 4690
2021-01-23 12:15 1.73 927 6190 (1982) 328 (1956) 1900 444 503 632 703 1310 3270 3430 4100 4690
2021-01-23 11:15 1.74 930 6190 (1982) 328 (1956) 1900 444 503 632 703 1310 3270 3430 4100 4690
2021-01-23 10:15 1.73 927 6190 (1982) 328 (1956) 1900 444 503 632 703 1310 3270 3430 4100 4690
2021-01-23 09:15 1.74 930 6190 (1982) 328 (1956) 1900 444 503 632 703 1310 3270 3430 4100 4690
2021-01-23 08:15 1.74 930 6190 (1982) 328 (1956) 1900 444 503 632 703 1310 3270 3430 4100 4690
2021-01-23 07:15 1.74 930 6190 (1982) 328 (1956) 1900 444 503 632 703 1310 3270 3430 4100 4690
2021-01-23 06:15 1.75 934 6190 (1982) 328 (1956) 1900 444 503 632 703 1310 3270 3430 4100 4690
2021-01-23 05:15 1.76 937 6190 (1982) 328 (1956) 1900 444 503 632 703 1310 3270 3430 4100 4690
2021-01-23 04:15 1.76 937 6190 (1982) 328 (1956) 1900 444 503 632 703 1310 3270 3430 4100 4690
2021-01-23 03:15 1.77 940 6190 (1982) 328 (1956) 1900 444 503 632 703 1310 3270 3430 4100 4690
2021-01-23 02:15 1.77 940 6190 (1982) 328 (1956) 1900 444 503 632 703 1310 3270 3430 4100 4690
2021-01-23 01:15 1.78 944 6190 (1982) 328 (1956) 1900 444 503 632 703 1310 3270 3430 4100 4690
2021-01-23 00:15 1.78 944 6190 (1982) 328 (1956) 1900 444 503 632 703 1310 3270 3430 4100 4690
2021-01-22 23:15 1.80 951 7160 (1999) 328 (1956) 1850 448 505 614 649 1160 2820 3440 4150 4670
2021-01-22 22:15 1.81 954 7160 (1999) 328 (1956) 1850 448 505 614 649 1160 2820 3440 4150 4670
2021-01-22 21:15 1.81 954 7160 (1999) 328 (1956) 1850 448 505 614 649 1160 2820 3440 4150 4670
2021-01-22 20:15 1.84 964 7160 (1999) 328 (1956) 1850 448 505 614 649 1160 2820 3440 4150 4670
2021-01-22 19:15 1.85 968 7160 (1999) 328 (1956) 1850 448 505 614 649 1160 2820 3440 4150 4670
2021-01-22 18:15 1.86 971 7160 (1999) 328 (1956) 1850 448 505 614 649 1160 2820 3440 4150 4670
2021-01-22 17:15 1.87 975 7160 (1999) 328 (1956) 1850 448 505 614 649 1160 2820 3440 4150 4670
2021-01-22 16:15 1.89 982 7160 (1999) 328 (1956) 1850 448 505 614 649 1160 2820 3440 4150 4670
2021-01-22 15:15 1.91 989 7160 (1999) 328 (1956) 1850 448 505 614 649 1160 2820 3440 4150 4670
2021-01-22 14:15 1.94 999 7160 (1999) 328 (1956) 1850 448 505 614 649 1160 2820 3440 4150 4670
2021-01-22 13:15 1.98 1010 7160 (1999) 328 (1956) 1850 448 505 614 649 1160 2820 3440 4150 4670
2021-01-22 12:15 1.99 1020 7160 (1999) 328 (1956) 1850 448 505 614 649 1160 2820 3440 4150 4670
2021-01-22 11:15 2.03 1030 7160 (1999) 328 (1956) 1850 448 505 614 649 1160 2820 3440 4150 4670
2021-01-22 10:15 2.05 1040 7160 (1999) 328 (1956) 1850 448 505 614 649 1160 2820 3440 4150 4670
2021-01-22 09:15 2.08 1050 7160 (1999) 328 (1956) 1850 448 505 614 649 1160 2820 3440 4150 4670
2021-01-22 08:15 2.12 1060 7160 (1999) 328 (1956) 1850 448 505 614 649 1160 2820 3440 4150 4670
2021-01-22 07:15 2.14 1070 7160 (1999) 328 (1956) 1850 448 505 614 649 1160 2820 3440 4150 4670
2021-01-22 06:15 2.17 1080 7160 (1999) 328 (1956) 1850 448 505 614 649 1160 2820 3440 4150 4670
2021-01-22 05:15 2.20 1090 7160 (1999) 328 (1956) 1850 448 505 614 649 1160 2820 3440 4150 4670
2021-01-22 04:15 2.23 1100 7160 (1999) 328 (1956) 1850 448 505 614 649 1160 2820 3440 4150 4670
2021-01-22 03:15 2.24 1110 7160 (1999) 328 (1956) 1850 448 505 614 649 1160 2820 3440 4150 4670
2021-01-22 02:15 2.26 1120 7160 (1999) 328 (1956) 1850 448 505 614 649 1160 2820 3440 4150 4670
2021-01-22 01:15 2.26 1120 7160 (1999) 328 (1956) 1850 448 505 614 649 1160 2820 3440 4150 4670
2021-01-22 00:15 2.27 1120 7160 (1999) 328 (1956) 1850 448 505 614 649 1160 2820 3440 4150 4670
2021-01-21 23:15 2.27 1120 4930 (1950) 324 (1956) 1760 421 490 595 638 1100 2870 3250 4120 4510
2021-01-21 22:15 2.27 1120 4930 (1950) 324 (1956) 1760 421 490 595 638 1100 2870 3250 4120 4510
2021-01-21 21:15 2.27 1120 4930 (1950) 324 (1956) 1760 421 490 595 638 1100 2870 3250 4120 4510
2021-01-21 20:15 2.29 1130 4930 (1950) 324 (1956) 1760 421 490 595 638 1100 2870 3250 4120 4510
2021-01-21 19:15 2.28 1120 4930 (1950) 324 (1956) 1760 421 490 595 638 1100 2870 3250 4120 4510
2021-01-21 18:15 2.27 1120 4930 (1950) 324 (1956) 1760 421 490 595 638 1100 2870 3250 4120 4510
2021-01-21 17:15 2.27 1120 4930 (1950) 324 (1956) 1760 421 490 595 638 1100 2870 3250 4120 4510
2021-01-21 16:15 2.27 1120 4930 (1950) 324 (1956) 1760 421 490 595 638 1100 2870 3250 4120 4510
2021-01-21 15:15 2.28 1120 4930 (1950) 324 (1956) 1760 421 490 595 638 1100 2870 3250 4120 4510
2021-01-21 14:15 2.28 1120 4930 (1950) 324 (1956) 1760 421 490 595 638 1100 2870 3250 4120 4510
2021-01-21 13:15 2.28 1120 4930 (1950) 324 (1956) 1760 421 490 595 638 1100 2870 3250 4120 4510
2021-01-21 12:15 2.28 1120 4930 (1950) 324 (1956) 1760 421 490 595 638 1100 2870 3250 4120 4510
2021-01-21 11:15 2.27 1120 4930 (1950) 324 (1956) 1760 421 490 595 638 1100 2870 3250 4120 4510
2021-01-21 10:15 2.26 1120 4930 (1950) 324 (1956) 1760 421 490 595 638 1100 2870 3250 4120 4510
2021-01-21 09:15 2.26 1120 4930 (1950) 324 (1956) 1760 421 490 595 638 1100 2870 3250 4120 4510
2021-01-21 08:15 2.26 1120 4930 (1950) 324 (1956) 1760 421 490 595 638 1100 2870 3250 4120 4510
2021-01-21 07:15 2.27 1120 4930 (1950) 324 (1956) 1760 421 490 595 638 1100 2870 3250 4120 4510
2021-01-21 06:15 2.26 1120 4930 (1950) 324 (1956) 1760 421 490 595 638 1100 2870 3250 4120 4510
2021-01-21 05:15 2.26 1120 4930 (1950) 324 (1956) 1760 421 490 595 638 1100 2870 3250 4120 4510
2021-01-21 04:15 2.26 1120 4930 (1950) 324 (1956) 1760 421 490 595 638 1100 2870 3250 4120 4510
2021-01-21 03:15 2.25 1110 4930 (1950) 324 (1956) 1760 421 490 595 638 1100 2870 3250 4120 4510
2021-01-21 02:15 2.25 1110 4930 (1950) 324 (1956) 1760 421 490 595 638 1100 2870 3250 4120 4510
2021-01-21 01:15 2.25 1110 4930 (1950) 324 (1956) 1760 421 490 595 638 1100 2870 3250 4120 4510
2021-01-21 00:15 2.24 1110 4930 (1950) 324 (1956) 1760 421 490 595 638 1100 2870 3250 4120 4510

A total of 80 rows are displayed for years 1949 through 2020.